createdAt,value
2017-09-22T00:02:03.522Z,13.53
2017-09-22T00:04:31.860Z,17.00
2017-09-22T00:07:00.186Z,9.53
2017-09-22T00:09:28.521Z,12.20
2017-09-22T00:11:56.853Z,10.20
2017-09-22T00:14:25.947Z,8.50
2017-09-22T00:16:54.270Z,9.47
2017-09-22T00:19:22.577Z,13.33
2017-09-22T00:21:50.922Z,13.57
2017-09-22T00:24:19.244Z,10.23
2017-09-22T00:26:47.629Z,10.63
2017-09-22T00:29:15.940Z,13.70
2017-09-22T00:31:45.039Z,12.03
2017-09-22T00:34:14.129Z,11.90
2017-09-22T00:36:42.452Z,11.07
2017-09-22T00:39:10.767Z,14.63
2017-09-22T00:41:39.129Z,13.70
2017-09-22T00:44:07.446Z,17.73
2017-09-22T00:46:36.557Z,9.20
2017-09-22T00:49:05.638Z,9.63
2017-09-22T00:51:33.936Z,8.40
2017-09-22T00:54:02.279Z,10.73
2017-09-22T00:56:30.592Z,15.07
2017-09-22T00:58:58.937Z,11.90
2017-09-22T01:01:27.264Z,10.10
2017-09-22T01:03:55.610Z,13.70
2017-09-22T01:06:24.702Z,10.60
2017-09-22T01:08:53.046Z,10.43
2017-09-22T01:11:21.357Z,14.77
2017-09-22T01:13:49.702Z,15.90
2017-09-22T01:16:18.016Z,12.13
2017-09-22T01:18:47.094Z,10.10
2017-09-22T01:21:15.430Z,13.00
2017-09-22T01:23:43.755Z,11.97
2017-09-22T01:26:12.114Z,14.00
2017-09-22T01:28:40.444Z,13.70
2017-09-22T01:31:08.776Z,10.83
2017-09-22T01:33:37.090Z,12.77
2017-09-22T01:36:05.427Z,11.23
2017-09-22T01:38:33.747Z,10.07
2017-09-22T01:41:02.854Z,13.80
2017-09-22T01:43:31.937Z,16.10
2017-09-22T01:46:00.298Z,15.03
2017-09-22T01:48:28.601Z,14.90
2017-09-22T01:50:57.717Z,9.37
2017-09-22T01:53:26.038Z,9.27
2017-09-22T01:55:54.353Z,10.03
2017-09-22T01:58:23.463Z,13.90
2017-09-22T02:00:51.762Z,12.47
2017-09-22T02:06:04.127Z,9.83
2017-09-22T02:08:32.444Z,8.13
2017-09-22T02:11:09.036Z,9.37
2017-09-22T02:13:37.365Z,9.20
2017-09-22T02:16:05.657Z,12.67
2017-09-22T02:18:33.997Z,13.10
2017-09-22T02:21:02.317Z,10.70
2017-09-22T02:23:31.423Z,9.83
2017-09-22T02:26:00.490Z,10.53
2017-09-22T02:28:28.887Z,12.17
2017-09-22T02:30:57.954Z,12.53
2017-09-22T02:33:26.271Z,11.30
2017-09-22T02:35:55.335Z,13.27
2017-09-22T02:38:23.675Z,7.90
2017-09-22T02:40:52.735Z,9.67
2017-09-22T02:43:21.822Z,9.23
2017-09-22T02:45:50.120Z,14.77
2017-09-22T02:48:18.440Z,8.70
2017-09-22T02:50:46.741Z,10.53
2017-09-22T02:53:15.055Z,11.87
2017-09-22T02:55:44.153Z,11.97
2017-09-22T02:58:12.470Z,8.77
2017-09-22T03:00:40.797Z,8.50
2017-09-22T03:03:09.877Z,13.13
2017-09-22T03:05:38.992Z,11.53
2017-09-22T03:08:08.058Z,9.47
2017-09-22T03:10:36.377Z,11.23
2017-09-22T03:13:04.689Z,15.07
2017-09-22T03:15:33.036Z,10.40
2017-09-22T03:18:01.337Z,10.67
2017-09-22T03:20:29.668Z,9.40
2017-09-22T03:22:57.980Z,14.13
2017-09-22T03:25:26.308Z,13.90
2017-09-22T03:27:54.624Z,12.50
2017-09-22T03:30:23.709Z,13.93
2017-09-22T03:32:52.784Z,14.53
2017-09-22T03:35:21.126Z,23.03
2017-09-22T03:37:49.428Z,15.63
2017-09-22T03:40:17.752Z,14.40
2017-09-22T03:42:46.061Z,23.20
2017-09-22T03:45:14.400Z,20.53
2017-09-22T03:47:43.476Z,17.63
2017-09-22T03:50:12.581Z,19.43
2017-09-22T03:52:40.903Z,28.20
2017-09-22T03:55:09.252Z,26.20
2017-09-22T03:57:38.327Z,23.30
2017-09-22T04:00:06.661Z,28.13
2017-09-22T04:02:34.988Z,37.40
2017-09-22T04:05:04.846Z,39.30
2017-09-22T04:07:33.153Z,57.73
2017-09-22T04:10:01.484Z,100.10
2017-09-22T04:12:29.842Z,96.83
2017-09-22T04:14:58.164Z,50.23
2017-09-22T04:17:26.476Z,34.10
2017-09-22T04:19:54.808Z,76.73
2017-09-22T04:22:23.135Z,43.53
2017-09-22T04:24:51.491Z,72.87
2017-09-22T04:27:19.823Z,32.50
2017-09-22T04:29:48.921Z,61.13
2017-09-22T04:32:18.012Z,54.77
2017-09-22T04:34:47.092Z,45.53
2017-09-22T04:37:15.423Z,44.90
2017-09-22T04:39:43.738Z,52.10
2017-09-22T04:42:12.073Z,39.97
2017-09-22T04:44:40.390Z,30.27
2017-09-22T04:47:08.732Z,26.93
2017-09-22T04:49:37.050Z,48.43
2017-09-22T04:52:05.385Z,47.03
2017-09-22T04:54:33.698Z,50.90
2017-09-22T04:57:02.042Z,38.70
2017-09-22T04:59:30.348Z,39.97
2017-09-22T05:01:58.679Z,34.03
2017-09-22T05:04:27.757Z,47.57
2017-09-22T05:06:56.087Z,28.80
2017-09-22T05:09:24.396Z,35.80
2017-09-22T05:11:52.735Z,31.97
2017-09-22T05:14:21.063Z,27.23
2017-09-22T05:16:49.406Z,61.97
2017-09-22T05:19:17.708Z,24.50
2017-09-22T05:21:46.037Z,28.37
2017-09-22T05:24:14.360Z,31.50
2017-09-22T05:26:42.690Z,23.97
2017-09-22T05:29:10.996Z,48.20
2017-09-22T05:31:39.311Z,32.53
2017-09-22T05:34:07.629Z,25.57
2017-09-22T05:36:35.963Z,37.90
2017-09-22T05:39:04.286Z,42.83
2017-09-22T05:41:32.609Z,32.13
2017-09-22T05:44:00.911Z,21.93
2017-09-22T05:46:29.242Z,16.27
2017-09-22T05:48:57.558Z,22.87
2017-09-22T05:51:25.884Z,20.90
2017-09-22T05:53:54.197Z,19.03
2017-09-22T05:56:22.529Z,16.90
2017-09-22T05:58:50.831Z,17.40
2017-09-22T06:01:19.164Z,16.30
2017-09-22T06:03:47.468Z,22.30
2017-09-22T06:06:15.813Z,28.13
2017-09-22T06:08:44.118Z,25.23
2017-09-22T06:11:12.463Z,17.80
2017-09-22T06:13:40.771Z,21.10
2017-09-22T06:16:09.880Z,22.90
2017-09-22T06:18:38.200Z,23.10
2017-09-22T06:21:06.532Z,19.33
2017-09-22T06:23:34.850Z,20.50
2017-09-22T06:26:03.180Z,23.83
2017-09-22T06:28:32.270Z,20.00
2017-09-22T06:31:01.383Z,16.90
2017-09-22T06:33:29.691Z,21.53
2017-09-22T06:35:58.080Z,17.20
2017-09-22T06:38:26.378Z,17.60
2017-09-22T06:40:54.706Z,21.17
2017-09-22T06:43:23.017Z,21.07
2017-09-22T06:45:51.343Z,23.20
2017-09-22T06:48:20.438Z,20.23
2017-09-22T06:50:49.544Z,16.37
2017-09-22T06:53:17.865Z,16.53
2017-09-22T06:55:46.209Z,17.57
2017-09-22T06:58:14.520Z,14.17
2017-09-22T07:00:42.861Z,17.07
2017-09-22T07:03:11.168Z,16.77
2017-09-22T07:05:39.505Z,16.17
2017-09-22T07:08:08.576Z,16.73
2017-09-22T07:10:36.886Z,14.77
2017-09-22T07:13:05.984Z,15.03
2017-09-22T07:15:34.312Z,15.87
2017-09-22T07:18:02.635Z,15.60
2017-09-22T07:20:31.714Z,15.17
2017-09-22T07:23:00.044Z,14.10
2017-09-22T07:25:28.351Z,14.83
2017-09-22T07:27:56.679Z,15.87
2017-09-22T07:30:24.991Z,23.50
2017-09-22T07:32:53.325Z,15.40
2017-09-22T07:35:22.392Z,16.20
2017-09-22T07:37:50.741Z,18.17
2017-09-22T07:40:19.044Z,14.93
2017-09-22T07:42:47.373Z,16.00
2017-09-22T07:45:15.696Z,16.73
2017-09-22T07:47:44.020Z,15.87
2017-09-22T07:50:12.338Z,14.40
2017-09-22T07:52:40.663Z,17.87
2017-09-22T07:55:09.733Z,20.33
2017-09-22T07:57:38.074Z,14.70
2017-09-22T08:00:06.376Z,15.27
2017-09-22T08:02:34.713Z,15.80
2017-09-22T08:05:03.031Z,16.97
2017-09-22T08:07:31.364Z,18.40
2017-09-22T08:09:59.678Z,18.70
2017-09-22T08:12:28.011Z,23.80
2017-09-22T08:14:56.345Z,24.00
2017-09-22T08:17:24.709Z,19.43
2017-09-22T08:19:53.029Z,23.63
2017-09-22T08:22:21.373Z,23.33
2017-09-22T08:24:49.693Z,20.10
2017-09-22T08:27:18.810Z,21.30
2017-09-22T08:29:47.136Z,17.80
2017-09-22T08:32:15.473Z,19.07
2017-09-22T08:34:43.794Z,22.90
2017-09-22T08:37:12.131Z,23.17
2017-09-22T08:39:40.454Z,21.40
2017-09-22T08:42:08.793Z,19.60
2017-09-22T08:44:37.126Z,29.93
2017-09-22T08:47:05.468Z,23.03
2017-09-22T08:49:33.787Z,22.50
2017-09-22T08:52:02.130Z,20.10
2017-09-22T08:54:30.455Z,30.53
2017-09-22T08:56:59.572Z,28.60
2017-09-22T08:59:27.896Z,26.67
2017-09-22T09:01:56.238Z,23.10
2017-09-22T09:04:24.564Z,28.70
2017-09-22T09:06:52.956Z,36.17
2017-09-22T09:09:21.267Z,25.87
2017-09-22T09:11:49.609Z,25.90
2017-09-22T09:14:17.925Z,31.07
2017-09-22T09:16:46.294Z,23.33
2017-09-22T09:19:14.629Z,25.90
2017-09-22T09:21:42.960Z,28.80
2017-09-22T09:24:11.268Z,24.30
2017-09-22T09:26:39.615Z,25.00
2017-09-22T09:29:07.941Z,27.40
2017-09-22T09:31:36.300Z,24.43
2017-09-22T09:34:04.638Z,21.83
2017-09-22T09:36:33.015Z,24.00
2017-09-22T09:39:02.095Z,31.13
2017-09-22T09:41:31.209Z,27.13
2017-09-22T09:43:59.528Z,39.37
2017-09-22T09:46:27.868Z,28.50
2017-09-22T09:48:56.953Z,27.73
2017-09-22T09:51:25.288Z,32.07
2017-09-22T09:53:53.596Z,30.00
2017-09-22T09:56:21.919Z,26.87
2017-09-22T09:58:50.258Z,31.70
2017-09-22T10:01:18.577Z,32.50
2017-09-22T10:03:46.917Z,26.67
2017-09-22T10:06:15.238Z,30.87
2017-09-22T10:08:43.576Z,34.53
2017-09-22T10:11:11.889Z,38.33
2017-09-22T10:13:40.236Z,24.57
2017-09-22T10:16:08.566Z,44.67
2017-09-22T10:18:36.912Z,24.57
2017-09-22T10:21:05.992Z,24.73
2017-09-22T10:23:34.348Z,29.50
2017-09-22T10:26:02.677Z,25.63
2017-09-22T10:28:31.040Z,34.83
2017-09-22T10:30:59.360Z,25.20
2017-09-22T10:33:27.696Z,25.43
2017-09-22T10:35:56.788Z,27.70
2017-09-22T10:38:25.914Z,28.53
2017-09-22T10:40:54.229Z,25.47
2017-09-22T10:43:22.574Z,24.47
2017-09-22T10:45:50.896Z,26.57
2017-09-22T10:48:19.240Z,27.57
2017-09-22T10:50:48.324Z,28.43
2017-09-22T10:53:16.659Z,30.53
2017-09-22T10:55:45.019Z,26.60
2017-09-22T10:58:13.332Z,36.63
2017-09-22T11:00:42.439Z,20.90
2017-09-22T11:03:10.781Z,23.50
2017-09-22T11:05:39.116Z,22.13
2017-09-22T11:08:07.442Z,20.73
2017-09-22T11:10:35.776Z,28.57
2017-09-22T11:13:04.098Z,23.30
2017-09-22T11:15:32.450Z,19.23
2017-09-22T11:18:00.772Z,21.20
2017-09-22T11:20:29.877Z,23.50
2017-09-22T11:22:58.959Z,19.43
2017-09-22T11:25:27.355Z,18.23
2017-09-22T11:27:56.437Z,17.80
2017-09-22T11:30:24.776Z,20.47
2017-09-22T11:32:53.086Z,21.10
2017-09-22T11:35:21.425Z,17.93
2017-09-22T11:37:49.750Z,17.70
2017-09-22T11:40:18.093Z,20.17
2017-09-22T11:42:46.411Z,21.30
2017-09-22T11:45:14.763Z,18.10
2017-09-22T11:47:43.073Z,11.77
2017-09-22T11:50:11.404Z,14.07
2017-09-22T11:52:39.724Z,21.43
2017-09-22T11:55:08.072Z,16.10
2017-09-22T11:57:36.398Z,22.67
2017-09-22T12:00:05.509Z,17.83
2017-09-22T12:02:33.829Z,18.23
2017-09-22T12:05:02.142Z,22.83
2017-09-22T12:07:30.617Z,13.30
2017-09-22T12:09:58.932Z,13.03
2017-09-22T12:12:27.272Z,13.30
2017-09-22T12:14:55.587Z,11.90
2017-09-22T12:17:23.928Z,27.03
2017-09-22T12:19:52.253Z,18.27
2017-09-22T12:22:20.602Z,15.97
2017-09-22T12:24:49.673Z,12.80
2017-09-22T12:27:18.021Z,14.50
2017-09-22T12:29:46.342Z,13.73
2017-09-22T12:32:14.680Z,13.67
2017-09-22T12:34:42.999Z,13.37
2017-09-22T12:37:11.340Z,13.23
2017-09-22T12:39:39.653Z,9.87
2017-09-22T12:42:07.980Z,14.00
2017-09-22T12:44:36.297Z,11.00
2017-09-22T12:47:04.624Z,13.10
2017-09-22T12:49:32.940Z,12.97
2017-09-22T12:52:01.273Z,11.20
2017-09-22T12:54:30.346Z,12.43
2017-09-22T12:56:58.673Z,9.07
2017-09-22T12:59:26.981Z,11.20
2017-09-22T13:01:55.318Z,13.47
2017-09-22T13:04:23.626Z,15.13
2017-09-22T13:06:51.968Z,13.23
2017-09-22T13:09:20.286Z,8.90
2017-09-22T13:11:48.620Z,14.63
2017-09-22T13:14:17.708Z,11.10
2017-09-22T13:16:46.813Z,13.50
2017-09-22T13:19:15.130Z,12.87
2017-09-22T13:21:43.437Z,12.60
2017-09-22T13:24:11.777Z,11.10
2017-09-22T13:26:40.090Z,11.97
2017-09-22T13:29:08.423Z,11.53
2017-09-22T13:31:36.735Z,31.00
2017-09-22T13:34:05.084Z,10.13
2017-09-22T13:36:33.422Z,12.90
2017-09-22T13:39:01.748Z,8.63
2017-09-22T13:41:30.079Z,9.20
2017-09-22T13:43:58.465Z,9.50
2017-09-22T13:46:27.540Z,14.00
2017-09-22T13:48:55.880Z,7.73
2017-09-22T13:51:24.178Z,6.83
2017-09-22T13:53:52.510Z,10.40
2017-09-22T13:56:21.637Z,6.90
2017-09-22T13:58:50.731Z,10.70
2017-09-22T14:01:19.052Z,7.10
2017-09-22T14:03:47.376Z,6.83
2017-09-22T14:06:30.383Z,6.07
2017-09-22T14:08:58.719Z,8.30
2017-09-22T14:11:27.037Z,7.53
2017-09-22T14:13:56.309Z,7.53
2017-09-22T14:16:24.633Z,11.50
2017-09-22T14:18:53.005Z,6.47
2017-09-22T14:21:21.314Z,7.83
2017-09-22T14:23:49.636Z,11.33
2017-09-22T14:26:19.597Z,9.40
2017-09-22T14:28:47.933Z,7.50
2017-09-22T14:31:17.009Z,7.17
2017-09-22T14:33:45.333Z,8.07
2017-09-22T14:36:13.740Z,6.80
2017-09-22T14:38:42.073Z,14.90
2017-09-22T14:41:11.148Z,6.40
2017-09-22T14:43:39.484Z,12.40
2017-09-22T14:46:07.809Z,10.80
2017-09-22T14:48:36.141Z,7.03
2017-09-22T14:51:04.459Z,5.83
2017-09-22T14:53:32.790Z,7.00
2017-09-22T14:56:01.101Z,6.60
2017-09-22T14:58:29.428Z,6.33
2017-09-22T15:00:57.731Z,8.13
2017-09-22T15:03:26.067Z,9.53
2017-09-22T15:05:55.157Z,5.07
2017-09-22T15:08:24.248Z,6.40
2017-09-22T15:10:52.560Z,5.70
2017-09-22T15:13:20.887Z,5.00
2017-09-22T15:15:49.185Z,4.80
2017-09-22T15:18:17.532Z,11.10
2017-09-22T15:20:45.852Z,4.97
2017-09-22T15:23:14.953Z,9.03
2017-09-22T15:25:43.281Z,4.33
2017-09-22T15:28:11.586Z,5.10
2017-09-22T15:30:39.929Z,4.83
2017-09-22T15:33:08.229Z,21.30
2017-09-22T15:35:36.569Z,5.80
2017-09-22T15:38:04.875Z,6.00
2017-09-22T15:40:33.209Z,4.80
2017-09-22T15:43:01.519Z,6.30
2017-09-22T15:45:29.849Z,7.00
2017-09-22T15:47:58.953Z,5.50
2017-09-22T15:50:28.087Z,4.17
2017-09-22T15:52:56.387Z,4.27
2017-09-22T15:55:24.725Z,4.03
2017-09-22T15:57:53.029Z,11.20
2017-09-22T16:00:21.386Z,23.50
2017-09-22T16:02:49.729Z,15.47
2017-09-22T16:05:18.065Z,9.90
2017-09-22T16:07:46.375Z,8.37
2017-09-22T16:10:14.715Z,10.97
2017-09-22T16:12:43.782Z,7.80
2017-09-22T16:15:12.134Z,13.60
2017-09-22T16:17:40.444Z,10.30
2017-09-22T16:20:08.849Z,5.90
2017-09-22T16:22:37.172Z,8.47
2017-09-22T16:25:05.512Z,14.60
2017-09-22T16:27:33.821Z,14.93
2017-09-22T16:30:02.156Z,6.67
2017-09-22T16:32:30.469Z,7.90
2017-09-22T16:34:58.810Z,8.90
2017-09-22T16:37:27.120Z,9.00
2017-09-22T16:39:55.489Z,6.33
2017-09-22T16:42:23.810Z,5.47
2017-09-22T16:44:52.906Z,4.90
2017-09-22T16:47:21.977Z,4.63
2017-09-22T16:49:50.313Z,4.93
2017-09-22T16:52:18.681Z,6.33
2017-09-22T16:54:47.021Z,6.83
2017-09-22T16:57:15.328Z,13.07
2017-09-22T16:59:43.664Z,8.10
2017-09-22T17:02:11.978Z,6.73
2017-09-22T17:04:41.080Z,5.43
2017-09-22T17:07:10.153Z,4.90
2017-09-22T17:09:38.472Z,7.73
2017-09-22T17:12:06.813Z,5.00
2017-09-22T17:14:35.112Z,5.77
2017-09-22T17:17:04.219Z,8.33
2017-09-22T17:19:34.497Z,5.27
2017-09-22T17:22:02.822Z,7.70
2017-09-22T17:24:31.888Z,10.33
2017-09-22T17:27:00.230Z,5.97
2017-09-22T17:29:28.540Z,5.97
2017-09-22T17:31:56.875Z,6.30
2017-09-22T17:34:25.173Z,8.17
2017-09-22T17:36:53.510Z,7.53
2017-09-22T17:39:21.828Z,11.67
2017-09-22T17:41:50.161Z,9.50
2017-09-22T17:44:19.234Z,9.80
2017-09-22T17:46:47.564Z,9.43
2017-09-22T17:49:16.184Z,9.07
2017-09-22T17:51:44.525Z,8.80
2017-09-22T17:54:12.842Z,18.23
2017-09-22T17:56:41.150Z,9.80
2017-09-22T17:59:10.247Z,16.33
2017-09-22T18:01:38.558Z,10.00
2017-09-22T18:04:06.896Z,18.10
2017-09-22T18:06:35.990Z,14.43
2017-09-22T18:09:05.098Z,22.47
2017-09-22T18:11:33.425Z,13.63
2017-09-22T18:14:01.779Z,19.40
2017-09-22T18:16:30.099Z,21.90
2017-09-22T18:19:01.305Z,20.70
2017-09-22T18:21:29.634Z,15.23
2017-09-22T18:23:58.774Z,14.37
2017-09-22T18:26:27.101Z,10.37
2017-09-22T18:28:55.412Z,14.60
2017-09-22T18:31:23.748Z,17.10
2017-09-22T18:33:52.060Z,8.07
2017-09-22T18:36:21.896Z,11.50
2017-09-22T18:38:50.203Z,7.90
2017-09-22T18:41:20.263Z,7.07
2017-09-22T18:43:51.420Z,8.00
2017-09-22T18:46:20.993Z,13.00
2017-09-22T18:48:49.304Z,16.93
2017-09-22T18:51:19.619Z,8.70
2017-09-22T18:53:51.565Z,9.00
2017-09-22T18:56:21.661Z,9.17
2017-09-22T18:58:51.641Z,7.57
2017-09-22T19:01:21.306Z,11.20
2017-09-22T19:03:51.665Z,7.97
2017-09-22T19:06:20.781Z,11.17
2017-09-22T19:08:50.233Z,10.47
2017-09-22T19:11:19.333Z,7.77
2017-09-22T19:13:52.341Z,13.10
2017-09-22T19:16:21.453Z,11.00
2017-09-22T19:18:50.568Z,11.00
2017-09-22T19:21:19.568Z,10.23
2017-09-22T19:23:49.745Z,8.73
2017-09-22T19:26:18.121Z,12.33
2017-09-22T19:29:04.170Z,7.83
2017-09-22T19:31:32.516Z,10.33
2017-09-22T19:34:01.601Z,15.03
2017-09-22T19:36:31.212Z,9.23
2017-09-22T19:39:01.207Z,12.70
2017-09-22T19:41:29.545Z,11.20
2017-09-22T19:43:58.701Z,11.23
2017-09-22T19:46:27.088Z,13.90
2017-09-22T19:48:56.163Z,8.57
2017-09-22T19:51:24.563Z,10.33
2017-09-22T19:53:56.566Z,16.63
2017-09-22T19:56:35.137Z,9.00
2017-09-22T19:59:03.439Z,10.07
2017-09-22T20:01:31.787Z,9.50
2017-09-22T20:04:00.102Z,11.90
2017-09-22T20:06:28.417Z,9.60
2017-09-22T20:08:57.561Z,9.07
2017-09-22T20:11:28.041Z,10.20
2017-09-22T20:13:56.388Z,12.60
2017-09-22T20:16:26.020Z,9.13
2017-09-22T20:19:00.419Z,9.10
2017-09-22T20:21:28.768Z,13.17
2017-09-22T20:24:03.010Z,13.20
2017-09-22T20:26:31.321Z,10.63
2017-09-22T20:28:59.657Z,12.50
2017-09-22T20:31:38.993Z,8.80
2017-09-22T20:34:21.031Z,13.37
2017-09-22T20:36:49.357Z,8.20
2017-09-22T20:39:18.822Z,12.37
2017-09-22T20:41:47.184Z,10.77
2017-09-22T20:44:16.437Z,15.87
2017-09-22T20:46:47.225Z,11.53
2017-09-22T20:49:16.638Z,9.10
2017-09-22T20:51:46.372Z,11.10
2017-09-22T20:54:14.712Z,31.30
2017-09-22T20:56:43.025Z,11.40
2017-09-22T20:59:11.366Z,13.10
2017-09-22T21:01:39.677Z,18.43
2017-09-22T21:04:08.606Z,17.90
2017-09-22T21:06:37.683Z,11.30
2017-09-22T21:09:08.747Z,9.77
2017-09-22T21:14:39.201Z,11.00
2017-09-22T21:17:13.408Z,9.57
2017-09-22T21:19:42.509Z,12.47
2017-09-22T21:22:15.520Z,22.50
2017-09-22T21:24:43.862Z,17.43
2017-09-22T21:27:12.179Z,22.20
2017-09-22T21:29:40.516Z,17.10
2017-09-22T21:32:08.829Z,13.90
2017-09-22T21:34:38.860Z,15.10
2017-09-22T21:37:08.479Z,10.90
2017-09-22T21:39:38.297Z,17.23
2017-09-22T21:42:22.827Z,20.17
2017-09-22T21:44:57.466Z,20.50
2017-09-22T21:47:26.590Z,14.77
2017-09-22T21:49:57.740Z,15.93
2017-09-22T21:52:27.486Z,16.40
2017-09-22T21:54:57.407Z,13.40
2017-09-22T21:57:27.813Z,16.53
2017-09-22T21:59:57.427Z,13.47
2017-09-22T22:02:28.428Z,11.07
2017-09-22T22:05:02.440Z,11.10
2017-09-22T22:07:30.758Z,11.63
2017-09-22T22:09:59.094Z,16.03
2017-09-22T22:12:30.251Z,11.40
2017-09-22T22:15:01.517Z,15.00
2017-09-22T22:17:35.377Z,12.97
2017-09-22T22:20:03.730Z,10.57
2017-09-22T22:22:39.822Z,11.47
2017-09-22T22:25:15.960Z,14.33
2017-09-22T22:27:45.975Z,23.03
2017-09-22T22:30:15.938Z,9.77
2017-09-22T22:32:44.242Z,16.17
2017-09-22T22:35:17.089Z,9.80
2017-09-22T22:37:45.408Z,10.47
2017-09-22T22:40:13.724Z,17.07
2017-09-22T22:42:43.876Z,10.17
2017-09-22T22:45:12.202Z,12.33
2017-09-22T22:47:41.323Z,14.40
2017-09-22T22:50:09.652Z,16.30
2017-09-22T22:52:38.032Z,10.30
2017-09-22T22:55:06.343Z,11.23
2017-09-22T22:57:35.441Z,13.27
2017-09-22T23:00:04.525Z,13.73
2017-09-22T23:02:32.623Z,14.10
2017-09-22T23:05:00.942Z,11.87
2017-09-22T23:07:29.268Z,11.00
2017-09-22T23:09:58.337Z,9.67
2017-09-22T23:12:26.661Z,13.00
2017-09-22T23:14:54.984Z,13.87
2017-09-22T23:17:23.311Z,15.97
2017-09-22T23:19:51.640Z,16.43
2017-09-22T23:22:19.973Z,17.53
2017-09-22T23:24:48.300Z,13.97
2017-09-22T23:27:16.649Z,16.90
2017-09-22T23:29:44.957Z,13.73
2017-09-22T23:32:13.265Z,18.27
2017-09-22T23:34:42.376Z,12.23
2017-09-22T23:37:10.709Z,15.47
2017-09-22T23:39:39.054Z,11.17
2017-09-22T23:42:07.360Z,11.10
2017-09-22T23:44:35.707Z,12.27
2017-09-22T23:47:04.024Z,12.53
2017-09-22T23:49:36.112Z,19.93
2017-09-22T23:52:05.193Z,12.47
2017-09-22T23:54:33.538Z,16.83
2017-09-22T23:57:01.848Z,15.80
2017-09-22T23:59:30.187Z,15.77
